createdAt,value
2019-01-26T00:00:18.940Z,1022.59
2019-01-26T00:01:19.514Z,1022.61
2019-01-26T00:02:20.088Z,1022.59
2019-01-26T00:03:20.665Z,1022.66
2019-01-26T00:04:21.308Z,1022.66
2019-01-26T00:05:21.908Z,1022.69
2019-01-26T00:06:22.532Z,1022.69
2019-01-26T00:07:23.107Z,1022.68
2019-01-26T00:08:23.682Z,1022.71
2019-01-26T00:09:24.309Z,1022.69
2019-01-26T00:10:24.879Z,1022.75
2019-01-26T00:11:25.453Z,1022.75
2019-01-26T00:12:26.026Z,1022.73
2019-01-26T00:13:26.599Z,1022.66
2019-01-26T00:14:27.172Z,1022.74
2019-01-26T00:15:27.747Z,1022.74
2019-01-26T00:16:28.322Z,1022.73
2019-01-26T00:17:28.898Z,1022.70
2019-01-26T00:18:30.957Z,1022.71
2019-01-26T00:19:31.042Z,1022.66
2019-01-26T00:20:36.310Z,1022.74
2019-01-26T00:21:33.236Z,1022.71
2019-01-26T00:22:33.812Z,1022.69
2019-01-26T00:23:34.389Z,1022.72
2019-01-26T00:24:34.964Z,1022.68
2019-01-26T00:25:35.539Z,1022.74
2019-01-26T00:26:36.440Z,1022.63
2019-01-26T00:27:37.073Z,1022.69
2019-01-26T00:28:37.648Z,1022.69
2019-01-26T00:29:38.224Z,1022.62
2019-01-26T00:30:38.999Z,1022.67
2019-01-26T00:31:39.675Z,1022.59
2019-01-26T00:32:40.250Z,1022.52
2019-01-26T00:33:43.292Z,1022.57
2019-01-26T00:34:42.597Z,1022.55
2019-01-26T00:35:43.170Z,1022.54
2019-01-26T00:36:43.748Z,1022.46
2019-01-26T00:37:44.326Z,1022.53
2019-01-26T00:38:44.895Z,1022.54
2019-01-26T00:39:45.474Z,1022.42
2019-01-26T00:40:46.084Z,1022.36
2019-01-26T00:41:46.622Z,1022.47
2019-01-26T00:42:47.197Z,1022.46
2019-01-26T00:43:47.773Z,1022.47
2019-01-26T00:44:48.346Z,1022.48
2019-01-26T00:46:01.723Z,1022.50
2019-01-26T00:47:02.348Z,1022.44
2019-01-26T00:48:02.923Z,1022.47
2019-01-26T00:49:03.498Z,1022.50
2019-01-26T00:50:04.122Z,1022.44
2019-01-26T00:51:04.696Z,1022.42
2019-01-26T00:52:05.271Z,1022.42
2019-01-26T00:53:05.848Z,1022.37
2019-01-26T00:54:06.425Z,1022.40
2019-01-26T00:55:07.000Z,1022.39
2019-01-26T00:56:07.578Z,1022.41
2019-01-26T00:57:08.152Z,1022.42
2019-01-26T00:58:08.729Z,1022.41
2019-01-26T00:59:09.339Z,1022.39
2019-01-26T01:00:09.917Z,1022.38
2019-01-26T01:01:10.491Z,1022.33
2019-01-26T01:02:11.069Z,1022.44
2019-01-26T01:03:11.644Z,1022.41
2019-01-26T01:04:12.217Z,1022.44
2019-01-26T01:05:12.792Z,1022.45
2019-01-26T01:06:13.608Z,1022.40
2019-01-26T01:07:14.182Z,1022.43
2019-01-26T01:08:14.813Z,1022.46
2019-01-26T01:09:15.426Z,1022.43
2019-01-26T01:10:16.001Z,1022.35
2019-01-26T01:11:16.619Z,1022.38
2019-01-26T01:12:17.242Z,1022.34
2019-01-26T01:13:17.868Z,1022.34
2019-01-26T01:14:18.445Z,1022.34
2019-01-26T01:15:19.017Z,1022.34
2019-01-26T01:16:19.592Z,1022.29
2019-01-26T01:17:20.165Z,1022.31
2019-01-26T01:18:20.790Z,1022.34
2019-01-26T01:19:21.364Z,1022.39
2019-01-26T01:20:21.940Z,1022.36
2019-01-26T01:21:22.515Z,1022.42
2019-01-26T01:22:23.096Z,1022.45
2019-01-26T01:23:23.707Z,1022.31
2019-01-26T01:24:24.322Z,1022.36
2019-01-26T01:25:24.906Z,1022.36
2019-01-26T01:26:25.629Z,1022.39
2019-01-26T01:27:26.202Z,1022.36
2019-01-26T01:28:26.774Z,1022.40
2019-01-26T01:29:27.348Z,1022.40
2019-01-26T01:30:27.971Z,1022.34
2019-01-26T01:31:28.544Z,1022.38
2019-01-26T01:32:29.119Z,1022.34
2019-01-26T01:33:29.693Z,1022.43
2019-01-26T01:34:30.270Z,1022.38
2019-01-26T01:35:30.843Z,1022.35
2019-01-26T01:36:31.421Z,1022.36
2019-01-26T01:37:31.994Z,1022.36
2019-01-26T01:38:32.571Z,1022.29
2019-01-26T01:39:33.196Z,1022.31
2019-01-26T01:40:33.782Z,1022.26
2019-01-26T01:41:34.358Z,1022.23
2019-01-26T01:42:34.932Z,1022.23
2019-01-26T01:43:35.508Z,1022.22
2019-01-26T01:44:36.081Z,1022.27
2019-01-26T01:45:36.706Z,1022.17
2019-01-26T01:46:42.906Z,1022.18
2019-01-26T01:47:38.896Z,1022.25
2019-01-26T01:48:39.462Z,1022.17
2019-01-26T01:49:40.087Z,1022.19
2019-01-26T01:50:40.662Z,1022.24
2019-01-26T01:51:41.238Z,1022.17
2019-01-26T01:52:41.860Z,1022.21
2019-01-26T01:53:42.437Z,1022.21
2019-01-26T01:54:43.009Z,1022.20
2019-01-26T01:55:43.582Z,1022.20
2019-01-26T01:56:44.306Z,1022.15
2019-01-26T01:57:44.879Z,1022.11
2019-01-26T01:58:45.451Z,1022.15
2019-01-26T01:59:46.025Z,1022.16
2019-01-26T02:00:46.599Z,1022.14
2019-01-26T02:01:47.222Z,1022.19
2019-01-26T02:02:47.798Z,1022.24
2019-01-26T02:03:48.373Z,1022.16
2019-01-26T02:04:48.994Z,1022.16
2019-01-26T02:05:49.523Z,1022.19
2019-01-26T02:06:50.097Z,1022.20
2019-01-26T02:07:50.670Z,1022.17
2019-01-26T02:08:51.294Z,1022.16
2019-01-26T02:09:51.867Z,1022.20
2019-01-26T02:10:52.442Z,1022.18
2019-01-26T02:11:53.015Z,1022.22
2019-01-26T02:12:53.639Z,1022.19
2019-01-26T02:13:54.215Z,1022.24
2019-01-26T02:14:54.789Z,1022.19
2019-01-26T02:15:55.415Z,1022.27
2019-01-26T02:16:55.989Z,1022.24
2019-01-26T02:17:56.564Z,1022.24
2019-01-26T02:18:57.181Z,1022.22
2019-01-26T02:19:57.758Z,1022.22
2019-01-26T02:20:58.333Z,1022.22
2019-01-26T02:21:58.907Z,1022.21
2019-01-26T02:22:59.481Z,1022.14
2019-01-26T02:24:00.057Z,1022.14
2019-01-26T02:25:00.632Z,1022.12
2019-01-26T02:26:01.328Z,1022.16
2019-01-26T02:27:01.915Z,1022.14
2019-01-26T02:28:02.490Z,1022.11
2019-01-26T02:29:03.067Z,1022.14
2019-01-26T02:30:03.653Z,1022.14
2019-01-26T02:31:04.216Z,1022.17
2019-01-26T02:32:04.791Z,1022.11
2019-01-26T02:33:05.364Z,1022.08
2019-01-26T02:34:05.987Z,1022.07
2019-01-26T02:35:06.558Z,1022.05
2019-01-26T02:36:07.131Z,1022.05
2019-01-26T02:37:07.705Z,1022.09
2019-01-26T02:38:08.278Z,1022.04
2019-01-26T02:39:08.851Z,1022.09
2019-01-26T02:40:09.474Z,1022.04
2019-01-26T02:41:10.047Z,1022.01
2019-01-26T02:42:10.621Z,1022.05
2019-01-26T02:43:11.197Z,1022.02
2019-01-26T02:44:11.827Z,1022.00
2019-01-26T02:45:12.400Z,1021.98
2019-01-26T02:46:12.976Z,1022.03
2019-01-26T02:47:13.590Z,1022.03
2019-01-26T02:48:14.164Z,1022.07
2019-01-26T02:49:14.738Z,1022.11
2019-01-26T02:50:15.314Z,1022.11
2019-01-26T02:51:15.891Z,1022.06
2019-01-26T02:52:16.506Z,1022.04
2019-01-26T02:53:17.082Z,1022.01
2019-01-26T02:54:17.656Z,1022.12
2019-01-26T02:55:18.432Z,1022.11
2019-01-26T02:56:19.008Z,1022.11
2019-01-26T02:57:19.630Z,1022.00
2019-01-26T02:58:20.203Z,1022.11
2019-01-26T02:59:20.777Z,1022.18
2019-01-26T03:00:21.351Z,1022.13
2019-01-26T03:01:21.925Z,1022.10
2019-01-26T03:02:22.499Z,1022.13
2019-01-26T03:03:23.075Z,1022.20
2019-01-26T03:04:23.646Z,1022.16
2019-01-26T03:05:24.220Z,1022.12
2019-01-26T03:06:24.844Z,1022.19
2019-01-26T03:07:25.419Z,1022.10
2019-01-26T03:08:25.993Z,1022.20
2019-01-26T03:09:26.566Z,1022.24
2019-01-26T03:10:27.141Z,1022.15
2019-01-26T03:11:27.714Z,1022.17
2019-01-26T03:12:28.289Z,1022.21
2019-01-26T03:13:28.918Z,1022.21
2019-01-26T03:14:29.487Z,1022.19
2019-01-26T03:15:30.109Z,1022.27
2019-01-26T03:16:30.684Z,1022.22
2019-01-26T03:17:31.309Z,1022.17
2019-01-26T03:18:31.883Z,1022.25
2019-01-26T03:19:32.460Z,1022.23
2019-01-26T03:20:33.031Z,1022.29
2019-01-26T03:21:33.607Z,1022.28
2019-01-26T03:22:34.177Z,1022.29
2019-01-26T03:23:34.752Z,1022.31
2019-01-26T03:24:35.334Z,1022.24
2019-01-26T03:25:35.903Z,1022.30
2019-01-26T03:26:36.474Z,1022.31
2019-01-26T03:27:37.049Z,1022.27
2019-01-26T03:28:37.625Z,1022.31
2019-01-26T03:29:38.200Z,1022.31
2019-01-26T03:30:38.793Z,1022.36
2019-01-26T03:31:39.442Z,1022.37
2019-01-26T03:32:40.071Z,1022.35
2019-01-26T03:33:40.684Z,1022.38
2019-01-26T03:34:41.259Z,1022.38
2019-01-26T03:35:41.887Z,1022.34
2019-01-26T03:36:42.455Z,1022.34
2019-01-26T03:37:43.080Z,1022.36
2019-01-26T03:38:43.658Z,1022.35
2019-01-26T03:39:44.231Z,1022.34
2019-01-26T03:40:44.807Z,1022.34
2019-01-26T03:41:45.379Z,1022.30
2019-01-26T03:42:45.955Z,1022.32
2019-01-26T03:43:46.529Z,1022.27
2019-01-26T03:44:47.103Z,1022.26
2019-01-26T03:45:47.725Z,1022.31
2019-01-26T03:46:48.297Z,1022.30
2019-01-26T03:47:48.873Z,1022.28
2019-01-26T03:48:49.460Z,1022.28
2019-01-26T03:49:50.021Z,1022.20
2019-01-26T03:50:50.593Z,1022.23
2019-01-26T03:51:51.168Z,1022.21
2019-01-26T03:52:51.744Z,1022.24
2019-01-26T03:53:52.372Z,1022.21
2019-01-26T03:54:52.938Z,1022.29
2019-01-26T03:55:53.514Z,1022.10
2019-01-26T03:56:54.089Z,1022.18
2019-01-26T03:57:54.666Z,1022.17
2019-01-26T03:58:55.231Z,1022.20
2019-01-26T03:59:55.803Z,1022.27
2019-01-26T04:00:56.375Z,1022.17
2019-01-26T04:01:56.959Z,1022.15
2019-01-26T04:02:57.521Z,1022.14
2019-01-26T04:03:58.106Z,1022.15
2019-01-26T04:04:58.667Z,1022.13
2019-01-26T04:05:59.291Z,1022.14
2019-01-26T04:06:59.866Z,1022.13
2019-01-26T04:08:00.589Z,1022.06
2019-01-26T04:09:01.162Z,1022.06
2019-01-26T04:10:01.790Z,1022.11
2019-01-26T04:11:02.379Z,1022.07
2019-01-26T04:12:02.942Z,1022.08
2019-01-26T04:13:03.507Z,1022.10
2019-01-26T04:14:04.079Z,1022.16
2019-01-26T04:15:04.651Z,1022.19
2019-01-26T04:16:05.228Z,1022.13
2019-01-26T04:17:05.840Z,1022.18
2019-01-26T04:18:06.415Z,1022.13
2019-01-26T04:19:07.043Z,1022.11
2019-01-26T04:20:07.620Z,1022.09
2019-01-26T04:21:08.187Z,1022.08
2019-01-26T04:22:08.757Z,1021.97
2019-01-26T04:23:09.381Z,1022.01
2019-01-26T04:24:09.955Z,1022.00
2019-01-26T04:25:10.576Z,1022.05
2019-01-26T04:26:11.152Z,1022.03
2019-01-26T04:27:11.725Z,1022.06
2019-01-26T04:28:12.347Z,1022.01
2019-01-26T04:29:12.922Z,1022.01
2019-01-26T04:30:13.496Z,1022.05
2019-01-26T04:31:14.065Z,1022.10
2019-01-26T04:32:14.637Z,1021.99
2019-01-26T04:33:15.210Z,1022.06
2019-01-26T04:34:15.783Z,1021.96
2019-01-26T04:35:16.356Z,1022.06
2019-01-26T04:36:16.979Z,1022.08
2019-01-26T04:37:17.554Z,1022.06
2019-01-26T04:38:18.127Z,1022.09
2019-01-26T04:39:18.701Z,1022.04
2019-01-26T04:40:19.317Z,1022.09
2019-01-26T04:41:19.847Z,1021.96
2019-01-26T04:42:20.427Z,1022.03
2019-01-26T04:43:21.049Z,1022.09
2019-01-26T04:44:21.619Z,1022.12
2019-01-26T04:45:22.198Z,1022.04
2019-01-26T04:46:22.818Z,1022.02
2019-01-26T04:47:30.506Z,1021.98
2019-01-26T04:48:24.958Z,1021.99
2019-01-26T04:49:25.529Z,1021.99
2019-01-26T04:50:26.103Z,1022.04
2019-01-26T04:51:26.676Z,1022.03
2019-01-26T04:52:27.250Z,1022.04
2019-01-26T04:53:27.824Z,1022.03
2019-01-26T04:54:28.399Z,1022.05
2019-01-26T04:55:28.972Z,1021.98
2019-01-26T04:56:29.544Z,1022.04
2019-01-26T04:57:30.120Z,1021.98
2019-01-26T04:58:30.694Z,1021.99
2019-01-26T04:59:31.265Z,1022.01
2019-01-26T05:00:31.840Z,1022.05
2019-01-26T05:01:32.412Z,1022.04
2019-01-26T05:02:32.983Z,1022.05
2019-01-26T05:03:33.558Z,1022.09
2019-01-26T05:04:34.180Z,1022.09
2019-01-26T05:05:34.751Z,1022.03
2019-01-26T05:06:35.323Z,1022.12
2019-01-26T05:07:35.904Z,1022.12
2019-01-26T05:08:36.521Z,1022.17
2019-01-26T05:09:37.094Z,1022.14
2019-01-26T05:10:37.669Z,1022.19
2019-01-26T05:11:38.241Z,1022.16
2019-01-26T05:12:38.867Z,1022.14
2019-01-26T05:13:39.441Z,1022.13
2019-01-26T05:14:40.057Z,1022.09
2019-01-26T05:15:40.632Z,1022.06
2019-01-26T05:16:41.206Z,1022.13
2019-01-26T05:17:41.780Z,1022.10
2019-01-26T05:18:42.405Z,1022.12
2019-01-26T05:19:42.976Z,1022.12
2019-01-26T05:20:43.600Z,1022.16
2019-01-26T05:21:44.173Z,1022.12
2019-01-26T05:22:44.750Z,1022.12
2019-01-26T05:23:45.373Z,1022.14
2019-01-26T05:24:45.944Z,1022.13
2019-01-26T05:25:46.565Z,1022.06
2019-01-26T05:26:47.139Z,1022.12
2019-01-26T05:27:47.713Z,1022.17
2019-01-26T05:28:48.329Z,1022.09
2019-01-26T05:29:48.902Z,1022.14
2019-01-26T05:30:49.477Z,1022.14
2019-01-26T05:31:50.101Z,1022.11
2019-01-26T05:32:50.676Z,1022.10
2019-01-26T05:33:51.291Z,1022.09
2019-01-26T05:34:51.913Z,1022.08
2019-01-26T05:35:52.537Z,1022.07
2019-01-26T05:36:53.113Z,1022.05
2019-01-26T05:37:53.786Z,1022.17
2019-01-26T05:38:54.394Z,1022.14
2019-01-26T05:39:54.968Z,1022.10
2019-01-26T05:40:55.540Z,1022.10
2019-01-26T05:41:56.113Z,1022.16
2019-01-26T05:42:56.687Z,1022.11
2019-01-26T05:43:57.312Z,1022.19
2019-01-26T05:44:57.886Z,1022.21
2019-01-26T05:45:58.501Z,1022.21
2019-01-26T05:46:59.115Z,1022.16
2019-01-26T05:47:59.688Z,1022.22
2019-01-26T05:49:00.302Z,1022.18
2019-01-26T05:50:00.875Z,1022.22
2019-01-26T05:51:01.447Z,1022.14
2019-01-26T05:52:02.018Z,1022.27
2019-01-26T05:53:02.590Z,1022.24
2019-01-26T05:54:03.212Z,1022.26
2019-01-26T05:55:03.837Z,1022.26
2019-01-26T05:56:04.413Z,1022.35
2019-01-26T05:57:05.027Z,1022.34
2019-01-26T05:58:05.599Z,1022.31
2019-01-26T05:59:06.177Z,1022.34
2019-01-26T06:00:06.841Z,1022.33
2019-01-26T06:01:07.414Z,1022.38
2019-01-26T06:02:07.993Z,1022.36
2019-01-26T06:03:08.608Z,1022.33
2019-01-26T06:04:09.180Z,1022.37
2019-01-26T06:05:09.754Z,1022.33
2019-01-26T06:06:10.331Z,1022.37
2019-01-26T06:07:10.951Z,1022.30
2019-01-26T06:08:11.535Z,1022.30
2019-01-26T06:09:12.101Z,1022.32
2019-01-26T06:10:12.722Z,1022.32
2019-01-26T06:11:13.295Z,1022.37
2019-01-26T06:12:13.869Z,1022.26
2019-01-26T06:13:14.440Z,1022.30
2019-01-26T06:14:15.012Z,1022.28
2019-01-26T06:15:15.602Z,1022.32
2019-01-26T06:16:16.200Z,1022.29
2019-01-26T06:17:16.771Z,1022.24
2019-01-26T06:18:17.394Z,1022.33
2019-01-26T06:19:17.964Z,1022.31
2019-01-26T06:20:18.538Z,1022.27
2019-01-26T06:21:19.114Z,1022.28
2019-01-26T06:22:19.730Z,1022.34
2019-01-26T06:23:20.302Z,1022.30
2019-01-26T06:24:20.877Z,1022.30
2019-01-26T06:25:21.510Z,1022.27
2019-01-26T06:26:22.070Z,1022.32
2019-01-26T06:27:22.640Z,1022.39
2019-01-26T06:28:23.212Z,1022.34
2019-01-26T06:29:23.787Z,1022.33
2019-01-26T06:30:24.408Z,1022.39
2019-01-26T06:31:25.033Z,1022.32
2019-01-26T06:32:25.658Z,1022.33
2019-01-26T06:33:26.231Z,1022.36
2019-01-26T06:34:26.803Z,1022.39
2019-01-26T06:35:27.376Z,1022.30
2019-01-26T06:36:27.951Z,1022.39
2019-01-26T06:37:28.524Z,1022.39
2019-01-26T06:38:29.098Z,1022.33
2019-01-26T06:39:29.671Z,1022.33
2019-01-26T06:40:30.246Z,1022.26
2019-01-26T06:41:30.817Z,1022.31
2019-01-26T06:42:31.392Z,1022.36
2019-01-26T06:43:31.964Z,1022.38
2019-01-26T06:44:32.538Z,1022.36
2019-01-26T06:45:33.109Z,1022.36
2019-01-26T06:46:34.984Z,1022.40
2019-01-26T06:47:35.348Z,1022.48
2019-01-26T06:48:35.973Z,1022.41
2019-01-26T06:49:36.546Z,1022.43
2019-01-26T06:50:37.120Z,1022.43
2019-01-26T06:51:37.692Z,1022.36
2019-01-26T06:52:38.273Z,1022.36
2019-01-26T06:53:38.837Z,1022.44
2019-01-26T06:54:39.410Z,1022.43
2019-01-26T06:55:39.982Z,1022.49
2019-01-26T06:56:40.562Z,1022.48
2019-01-26T06:57:41.169Z,1022.52
2019-01-26T06:58:41.743Z,1022.53
2019-01-26T06:59:42.327Z,1022.56
2019-01-26T07:00:42.924Z,1022.58
2019-01-26T07:01:43.498Z,1022.58
2019-01-26T07:02:44.073Z,1022.58
2019-01-26T07:03:46.047Z,1022.62
2019-01-26T07:04:46.261Z,1022.61
2019-01-26T07:05:46.836Z,1022.65
2019-01-26T07:06:47.409Z,1022.58
2019-01-26T07:07:47.980Z,1022.66
2019-01-26T07:08:48.603Z,1022.66
2019-01-26T07:09:49.176Z,1022.64
2019-01-26T07:10:49.750Z,1022.66
2019-01-26T07:11:50.324Z,1022.65
2019-01-26T07:12:50.897Z,1022.65
2019-01-26T07:13:51.470Z,1022.63
2019-01-26T07:14:52.044Z,1022.61
2019-01-26T07:15:52.617Z,1022.71
2019-01-26T07:16:53.198Z,1022.66
2019-01-26T07:17:53.800Z,1022.66
2019-01-26T07:18:54.374Z,1022.70
2019-01-26T07:19:54.946Z,1022.62
2019-01-26T07:20:55.570Z,1022.68
2019-01-26T07:21:56.141Z,1022.78
2019-01-26T07:22:56.712Z,1022.72
2019-01-26T07:23:57.284Z,1022.73
2019-01-26T07:24:57.859Z,1022.75
2019-01-26T07:25:58.470Z,1022.69
2019-01-26T07:26:59.042Z,1022.73
2019-01-26T07:27:59.616Z,1022.76
2019-01-26T07:29:00.189Z,1022.66
2019-01-26T07:30:00.803Z,1022.72
2019-01-26T07:31:01.375Z,1022.63
2019-01-26T07:32:01.994Z,1022.70
2019-01-26T07:33:02.619Z,1022.78
2019-01-26T07:34:03.192Z,1022.77
2019-01-26T07:35:03.766Z,1022.77
2019-01-26T07:36:04.337Z,1022.80
2019-01-26T07:37:04.959Z,1022.78
2019-01-26T07:38:05.533Z,1022.78
2019-01-26T07:39:06.107Z,1022.80
2019-01-26T07:40:06.732Z,1022.82
2019-01-26T07:41:07.304Z,1022.82
2019-01-26T07:42:07.926Z,1022.90
2019-01-26T07:43:08.500Z,1022.91
2019-01-26T07:44:09.074Z,1022.88
2019-01-26T07:45:09.648Z,1022.92
2019-01-26T07:46:10.225Z,1022.94
2019-01-26T07:47:10.793Z,1022.90
2019-01-26T07:48:16.768Z,1022.87
2019-01-26T07:49:12.936Z,1022.91
2019-01-26T07:50:13.509Z,1023.02
2019-01-26T07:51:14.083Z,1023.07
2019-01-26T07:52:14.655Z,1022.97
2019-01-26T07:53:15.229Z,1023.07
2019-01-26T07:54:15.801Z,1022.94
2019-01-26T07:55:16.376Z,1022.93
2019-01-26T07:56:17.039Z,1022.94
2019-01-26T07:57:17.612Z,1023.00
2019-01-26T07:58:18.187Z,1023.03
2019-01-26T07:59:20.162Z,1023.01
2019-01-26T08:00:20.323Z,1023.08
2019-01-26T08:01:20.894Z,1023.01
2019-01-26T08:02:21.518Z,1023.03
2019-01-26T08:03:22.095Z,1023.03
2019-01-26T08:04:22.664Z,1023.12
2019-01-26T08:05:23.239Z,1023.14
2019-01-26T08:06:23.812Z,1023.05
2019-01-26T08:07:24.391Z,1023.11
2019-01-26T08:08:24.962Z,1023.12
2019-01-26T08:09:25.531Z,1023.11
2019-01-26T08:10:26.105Z,1023.17
2019-01-26T08:11:26.677Z,1023.16
2019-01-26T08:12:27.253Z,1023.17
2019-01-26T08:13:27.823Z,1023.10
2019-01-26T08:14:28.395Z,1023.17
2019-01-26T08:15:28.968Z,1023.21
2019-01-26T08:16:29.539Z,1023.25
2019-01-26T08:17:30.312Z,1023.19
2019-01-26T08:18:30.935Z,1023.22
2019-01-26T08:19:31.509Z,1023.31
2019-01-26T08:20:32.080Z,1023.29
2019-01-26T08:21:32.653Z,1023.27
2019-01-26T08:22:33.224Z,1023.36
2019-01-26T08:23:33.795Z,1023.32
2019-01-26T08:24:34.365Z,1023.23
2019-01-26T08:25:34.939Z,1023.32
2019-01-26T08:26:35.511Z,1023.41
2019-01-26T08:27:36.084Z,1023.41
2019-01-26T08:28:36.657Z,1023.41
2019-01-26T08:29:37.227Z,1023.43
2019-01-26T08:30:38.001Z,1023.43
2019-01-26T08:31:38.574Z,1023.39
2019-01-26T08:32:39.147Z,1023.40
2019-01-26T08:33:39.721Z,1023.39
2019-01-26T08:34:40.293Z,1023.41
2019-01-26T08:35:40.868Z,1023.52
2019-01-26T08:36:41.440Z,1023.43
2019-01-26T08:37:42.106Z,1023.55
2019-01-26T08:38:42.678Z,1023.54
2019-01-26T08:39:43.250Z,1023.43
2019-01-26T08:40:43.826Z,1023.41
2019-01-26T08:41:44.400Z,1023.48
2019-01-26T08:42:44.975Z,1023.45
2019-01-26T08:43:45.545Z,1023.47
2019-01-26T08:44:46.122Z,1023.48
2019-01-26T08:45:46.693Z,1023.55
2019-01-26T08:46:47.266Z,1023.56
2019-01-26T08:47:47.838Z,1023.54
2019-01-26T08:48:48.412Z,1023.49
2019-01-26T08:49:48.984Z,1023.51
2019-01-26T08:50:49.556Z,1023.53
2019-01-26T08:51:50.182Z,1023.53
2019-01-26T08:52:50.752Z,1023.57
2019-01-26T08:53:51.377Z,1023.58
2019-01-26T08:54:51.999Z,1023.60
2019-01-26T08:55:52.571Z,1023.57
2019-01-26T08:56:53.145Z,1023.62
2019-01-26T08:57:53.718Z,1023.55
2019-01-26T08:58:54.293Z,1023.56
2019-01-26T08:59:54.864Z,1023.62
2019-01-26T09:00:55.495Z,1023.64
2019-01-26T09:01:56.060Z,1023.66
2019-01-26T09:02:56.632Z,1023.68
2019-01-26T09:03:57.203Z,1023.70
2019-01-26T09:04:57.774Z,1023.70
2019-01-26T09:05:58.352Z,1023.74
2019-01-26T09:06:58.925Z,1023.75
2019-01-26T09:07:59.543Z,1023.72
2019-01-26T09:09:00.118Z,1023.72
2019-01-26T09:10:00.742Z,1023.63
2019-01-26T09:11:01.369Z,1023.72
2019-01-26T09:12:01.943Z,1023.83
2019-01-26T09:13:02.520Z,1023.84
2019-01-26T09:14:03.091Z,1023.80
2019-01-26T09:15:03.667Z,1023.70
2019-01-26T09:16:04.238Z,1023.74
2019-01-26T09:17:04.811Z,1023.74
2019-01-26T09:18:05.384Z,1023.74
2019-01-26T09:19:05.959Z,1023.77
2019-01-26T09:20:06.535Z,1023.79
2019-01-26T09:21:07.159Z,1023.82
2019-01-26T09:22:07.732Z,1023.80
2019-01-26T09:23:08.306Z,1023.83
2019-01-26T09:24:08.882Z,1023.83
2019-01-26T09:25:09.455Z,1023.85
2019-01-26T09:26:10.027Z,1023.89
2019-01-26T09:27:10.600Z,1023.86
2019-01-26T09:28:11.222Z,1023.86
2019-01-26T09:29:11.796Z,1023.85
2019-01-26T09:30:12.366Z,1023.88
2019-01-26T09:31:12.939Z,1023.86
2019-01-26T09:32:13.511Z,1023.86
2019-01-26T09:33:14.084Z,1023.82
2019-01-26T09:34:14.658Z,1023.82
2019-01-26T09:35:15.228Z,1023.91
2019-01-26T09:36:15.798Z,1023.82
2019-01-26T09:37:16.372Z,1023.88
2019-01-26T09:38:16.944Z,1023.90
2019-01-26T09:39:17.515Z,1023.92
2019-01-26T09:40:18.088Z,1023.89
2019-01-26T09:41:18.700Z,1023.89
2019-01-26T09:42:19.323Z,1023.89
2019-01-26T09:43:19.898Z,1023.92
2019-01-26T09:44:20.472Z,1023.89
2019-01-26T09:45:21.046Z,1023.92
2019-01-26T09:46:21.623Z,1023.95
2019-01-26T09:47:22.243Z,1023.98
2019-01-26T09:48:22.814Z,1024.01
2019-01-26T09:49:23.387Z,1023.95
2019-01-26T09:50:23.960Z,1023.91
2019-01-26T09:51:24.582Z,1023.92
2019-01-26T09:52:25.154Z,1023.97
2019-01-26T09:53:25.732Z,1023.99
2019-01-26T09:54:26.304Z,1024.04
2019-01-26T09:55:26.881Z,1024.02
2019-01-26T09:56:27.456Z,1024.00
2019-01-26T09:57:28.028Z,1024.02
2019-01-26T09:58:28.602Z,1023.91
2019-01-26T09:59:29.177Z,1024.03
2019-01-26T10:00:29.751Z,1024.13
2019-01-26T10:01:30.327Z,1024.05
2019-01-26T10:02:30.900Z,1024.11
2019-01-26T10:03:31.526Z,1024.12
2019-01-26T10:04:32.100Z,1024.11
2019-01-26T10:05:32.671Z,1024.18
2019-01-26T10:06:33.244Z,1024.10
2019-01-26T10:07:33.822Z,1024.01
2019-01-26T10:08:34.395Z,1024.05
2019-01-26T10:09:34.969Z,1024.07
2019-01-26T10:10:35.542Z,1024.05
2019-01-26T10:11:36.117Z,1024.04
2019-01-26T10:12:36.690Z,1024.07
2019-01-26T10:13:37.263Z,1024.12
2019-01-26T10:14:37.837Z,1024.02
2019-01-26T10:15:38.410Z,1023.99
2019-01-26T10:16:38.985Z,1024.03
2019-01-26T10:17:45.812Z,1024.08
2019-01-26T10:18:41.127Z,1023.97
2019-01-26T10:19:41.700Z,1024.00
2019-01-26T10:20:42.275Z,1023.97
2019-01-26T10:21:42.848Z,1023.94
2019-01-26T10:22:43.424Z,1023.96
2019-01-26T10:23:43.999Z,1024.05
2019-01-26T10:24:44.571Z,1024.07
2019-01-26T10:25:48.826Z,1024.07
2019-01-26T10:26:45.809Z,1024.10
2019-01-26T10:27:46.432Z,1024.08
2019-01-26T10:28:47.008Z,1024.05
2019-01-26T10:29:47.580Z,1024.06
2019-01-26T10:30:48.157Z,1024.14
2019-01-26T10:31:48.732Z,1024.09
2019-01-26T10:32:49.305Z,1024.06
2019-01-26T10:33:49.879Z,1024.07
2019-01-26T10:34:50.454Z,1024.10
2019-01-26T10:35:51.028Z,1024.13
2019-01-26T10:36:51.603Z,1024.14
2019-01-26T10:37:52.178Z,1024.20
2019-01-26T10:38:52.752Z,1024.21
2019-01-26T10:39:53.327Z,1024.16
2019-01-26T10:40:53.901Z,1024.18
2019-01-26T10:41:54.527Z,1024.22
2019-01-26T10:42:55.152Z,1024.18
2019-01-26T10:43:55.726Z,1024.15
2019-01-26T10:44:56.300Z,1024.23
2019-01-26T10:45:56.874Z,1024.33
2019-01-26T10:46:57.448Z,1024.20
2019-01-26T10:47:58.022Z,1024.20
2019-01-26T10:49:00.865Z,1024.23
2019-01-26T10:50:05.215Z,1024.19
2019-01-26T10:51:05.787Z,1024.13
2019-01-26T10:52:06.410Z,1024.23
2019-01-26T10:53:06.985Z,1024.19
2019-01-26T10:54:07.560Z,1024.15
2019-01-26T10:55:08.132Z,1024.20
2019-01-26T10:56:08.709Z,1024.17
2019-01-26T10:57:09.281Z,1024.23
2019-01-26T10:58:09.906Z,1024.13
2019-01-26T10:59:10.532Z,1024.11
2019-01-26T11:00:11.155Z,1024.06
2019-01-26T11:01:11.729Z,1024.14
2019-01-26T11:02:12.306Z,1024.03
2019-01-26T11:03:12.928Z,1024.10
2019-01-26T11:04:13.504Z,1024.11
2019-01-26T11:05:14.078Z,1024.09
2019-01-26T11:06:14.652Z,1024.11
2019-01-26T11:07:15.874Z,1024.15
2019-01-26T11:08:16.458Z,1024.18
2019-01-26T11:09:17.031Z,1024.22
2019-01-26T11:10:17.607Z,1024.21
2019-01-26T11:11:18.180Z,1024.25
2019-01-26T11:12:18.757Z,1024.28
2019-01-26T11:13:19.331Z,1024.27
2019-01-26T11:14:19.959Z,1024.23
2019-01-26T11:15:20.580Z,1024.19
2019-01-26T11:16:21.154Z,1024.26
2019-01-26T11:17:21.729Z,1024.13
2019-01-26T11:18:22.354Z,1024.16
2019-01-26T11:19:22.936Z,1024.14
2019-01-26T11:20:23.504Z,1024.16
2019-01-26T11:21:25.395Z,1024.17
2019-01-26T11:22:25.646Z,1024.17
2019-01-26T11:23:26.225Z,1024.14
2019-01-26T11:24:26.803Z,1024.11
2019-01-26T11:25:27.379Z,1024.15
2019-01-26T11:26:27.956Z,1024.03
2019-01-26T11:27:28.535Z,1024.05
2019-01-26T11:28:29.115Z,1024.07
2019-01-26T11:29:29.691Z,1024.13
2019-01-26T11:30:30.268Z,1024.09
2019-01-26T11:31:30.847Z,1024.08
2019-01-26T11:32:31.426Z,1024.10
2019-01-26T11:33:32.053Z,1024.07
2019-01-26T11:34:32.637Z,1024.01
2019-01-26T11:35:33.208Z,1024.07
2019-01-26T11:36:33.788Z,1024.07
2019-01-26T11:37:34.366Z,1024.05
2019-01-26T11:38:34.943Z,1024.03
2019-01-26T11:39:35.521Z,1023.96
2019-01-26T11:40:36.100Z,1024.00
2019-01-26T11:41:36.678Z,1023.98
2019-01-26T11:42:37.257Z,1023.94
2019-01-26T11:43:37.837Z,1023.97
2019-01-26T11:44:38.417Z,1023.95
2019-01-26T11:45:38.994Z,1023.84
2019-01-26T11:46:39.578Z,1023.92
2019-01-26T11:47:40.159Z,1023.90
2019-01-26T11:48:40.740Z,1023.90
2019-01-26T11:49:41.314Z,1023.90
2019-01-26T11:50:41.896Z,1023.94
2019-01-26T11:51:42.473Z,1023.82
2019-01-26T11:52:43.050Z,1023.92
2019-01-26T11:53:43.629Z,1023.83
2019-01-26T11:54:44.207Z,1023.80
2019-01-26T11:55:44.885Z,1023.79
2019-01-26T11:56:45.464Z,1023.83
2019-01-26T11:57:46.040Z,1023.79
2019-01-26T11:58:46.669Z,1023.76
2019-01-26T11:59:47.247Z,1023.81
2019-01-26T12:00:47.824Z,1023.73
2019-01-26T12:01:48.407Z,1023.68
2019-01-26T12:02:48.994Z,1023.71
2019-01-26T12:03:49.561Z,1023.68
2019-01-26T12:04:50.139Z,1023.75
2019-01-26T12:05:50.717Z,1023.73
2019-01-26T12:06:51.296Z,1023.73
2019-01-26T12:07:51.877Z,1023.73
2019-01-26T12:08:52.495Z,1023.78
2019-01-26T12:09:53.124Z,1023.69
2019-01-26T12:10:53.703Z,1023.71
2019-01-26T12:11:54.281Z,1023.69
2019-01-26T12:12:54.860Z,1023.78